Time;durP1;ratioP1;P1;durP2;ratioP2;P2;SDS_P1;SDS_P2;PMS_P1;PMS_P2;Temp;Humidity;BMP_temperature;BMP_pressure;BME280_temperature;BME280_humidity;BME280_pressure;Samples;Min_cycle;Max_cycle;Signal;HPM_P1;HPM_P2
2021/05/03 00:01:07;;;;;;;6.10;4.15;;;;;;;8.30;60.19;101012.91;5069489;28;20048;-68
2021/05/03 00:03:32;;;;;;;4.30;3.90;;;;;;;8.11;61.79;101011.03;5066874;28;20024;-68
2021/05/03 00:05:57;;;;;;;7.13;3.90;;;;;;;8.53;58.47;101014.81;5069523;28;20040;-68
2021/05/03 00:08:26;;;;;;;6.20;4.45;;;;;;;8.34;59.09;101014.69;5071214;28;20063;-68
2021/05/03 00:10:52;;;;;;;5.43;4.80;;;;;;;8.00;59.18;101014.47;5070887;28;20439;-68
2021/05/03 00:13:18;;;;;;;5.82;3.92;;;;;;;7.91;60.22;101019.66;5053359;28;20029;-69
2021/05/03 00:15:43;;;;;;;4.95;4.10;;;;;;;7.61;61.94;101023.81;5073090;28;20077;-68
2021/05/03 00:18:08;;;;;;;5.00;3.95;;;;;;;7.94;61.18;101030.22;5064028;28;20028;-68
2021/05/03 00:20:34;;;;;;;4.28;3.88;;;;;;;7.88;61.91;101030.16;5074519;28;20502;-68
2021/05/03 00:22:59;;;;;;;5.53;4.38;;;;;;;7.05;64.45;101022.41;5074842;28;20067;-68
2021/05/03 00:25:25;;;;;;;6.03;4.55;;;;;;;7.97;63.38;101024.94;5073160;28;20017;-68
2021/05/03 00:27:50;;;;;;;6.53;4.85;;;;;;;8.50;60.57;101025.28;5073531;28;20097;-68
2021/05/03 00:30:16;;;;;;;5.65;4.32;;;;;;;8.18;61.59;101023.34;5074289;28;20028;-69
2021/05/03 00:32:42;;;;;;;6.38;4.40;;;;;;;9.03;59.69;101028.16;5074365;28;20029;-69
2021/05/03 00:35:08;;;;;;;4.60;4.20;;;;;;;8.83;59.71;101023.72;5074233;28;20060;-68
2021/05/03 00:37:33;;;;;;;4.53;4.10;;;;;;;8.59;59.37;101030.63;5073073;28;20491;-68
2021/05/03 00:39:58;;;;;;;4.88;4.38;;;;;;;9.42;57.78;101028.25;5074009;28;20063;-68
2021/05/03 00:42:24;;;;;;;6.82;4.68;;;;;;;9.59;57.57;101030.91;5057678;28;20048;-69
2021/05/03 00:44:51;;;;;;;4.47;4.07;;;;;;;9.49;57.20;101035.28;5074254;28;20024;-68
2021/05/03 00:47:17;;;;;;;5.38;4.32;;;;;;;9.19;58.02;101030.84;5056391;28;20103;-69
2021/05/03 00:49:43;;;;;;;5.57;4.47;;;;;;;9.05;58.80;101029.06;5056191;28;20025;-68
2021/05/03 00:52:08;;;;;;;5.28;4.00;;;;;;;9.39;57.89;101036.16;5074182;28;20029;-68
2021/05/03 00:54:34;;;;;;;4.55;3.90;;;;;;;8.96;58.22;101035.16;5046328;28;20024;-69
2021/05/03 00:56:59;;;;;;;5.38;4.57;;;;;;;8.81;58.44;101046.50;5073753;28;20047;-68
2021/05/03 00:59:24;;;;;;;5.40;4.20;;;;;;;8.20;60.31;101048.78;5072813;28;20407;-68
2021/05/03 01:01:50;;;;;;;5.63;4.40;;;;;;;8.28;60.22;101040.06;5072472;28;20032;-68
2021/05/03 01:04:15;;;;;;;4.25;3.70;;;;;;;7.93;60.19;101044.19;5073819;28;20165;-68
2021/05/03 01:06:40;;;;;;;4.60;4.13;;;;;;;7.66;62.05;101035.22;5073200;28;20063;-68
2021/05/03 01:09:06;;;;;;;9.27;4.20;;;;;;;6.86;63.35;101046.63;5073523;28;20107;-68
2021/05/03 01:11:32;;;;;;;5.63;4.40;;;;;;;6.45;65.29;101051.34;5074026;28;20460;-68
2021/05/03 01:13:58;;;;;;;5.57;4.20;;;;;;;6.56;65.45;101050.63;5055929;28;20073;-68
2021/05/03 01:16:23;;;;;;;6.43;4.57;;;;;;;6.97;62.67;101047.63;5055513;28;20050;-68
2021/05/03 01:18:48;;;;;;;6.45;5.10;;;;;;;7.26;62.12;101049.72;5055597;28;20033;-69
2021/05/03 01:21:27;;;;;;;6.63;5.20;;;;;;;6.85;62.92;101050.13;5068230;28;20032;-68
2021/05/03 01:23:52;;;;;;;4.78;4.28;;;;;;;6.36;64.72;101049.47;5070545;28;20500;-68
2021/05/03 01:26:17;;;;;;;6.05;4.15;;;;;;;5.95;65.82;101050.59;5071430;28;20099;-68
2021/05/03 01:28:43;;;;;;;5.07;4.57;;;;;;;5.90;67.00;101063.59;5072334;28;20074;-68
2021/05/03 01:31:08;;;;;;;7.53;4.78;;;;;;;5.64;67.47;101050.06;5057134;28;20086;-68
2021/05/03 01:33:34;;;;;;;5.10;4.65;;;;;;;6.18;66.26;101057.97;5051137;28;20461;-68
2021/05/03 01:35:59;;;;;;;5.75;5.18;;;;;;;6.05;64.81;101058.59;5072814;28;20021;-68
2021/05/03 01:38:24;;;;;;;8.70;5.60;;;;;;;5.63;66.18;101053.53;5073328;28;20427;-68
2021/05/03 01:40:50;;;;;;;6.78;4.78;;;;;;;5.46;68.38;101067.19;5056482;28;20033;-68
2021/05/03 01:43:26;;;;;;;5.80;5.25;;;;;;;5.65;67.81;101062.28;5073303;28;20021;-68
2021/05/03 01:45:53;;;;;;;5.88;4.45;;;;;;;5.62;67.30;101063.13;5072840;28;20295;-68
2021/05/03 01:48:22;;;;;;;7.43;5.72;;;;;;;5.44;69.17;101068.88;5061555;28;20025;-67
2021/05/03 01:50:48;;;;;;;9.07;5.65;;;;;;;5.44;68.28;101068.03;5035254;28;20040;-68
2021/05/03 01:53:14;;;;;;;9.20;5.93;;;;;;;5.59;68.09;101068.31;5053738;28;20021;-68
2021/05/03 01:55:40;;;;;;;9.27;6.43;;;;;;;5.70;67.55;101068.47;5054681;28;20083;-69
2021/05/03 01:58:07;;;;;;;7.88;6.22;;;;;;;5.81;67.20;101065.19;5073175;28;20024;-68
2021/05/03 02:00:33;;;;;;;8.10;6.30;;;;;;;5.91;66.75;101070.59;5071607;28;20099;-68
2021/05/03 02:02:58;;;;;;;8.15;4.88;;;;;;;5.36;68.02;101073.09;5073215;28;20033;-68
2021/05/03 02:05:25;;;;;;;7.82;6.13;;;;;;;5.25;68.60;101078.13;5053012;28;20033;-68
2021/05/03 02:08:04;;;;;;;7.68;5.70;;;;;;;5.24;68.89;101077.25;5071103;28;20025;-68
2021/05/03 02:10:31;;;;;;;8.52;5.45;;;;;;;5.24;68.99;101076.38;5068001;28;20024;-68
2021/05/03 02:12:57;;;;;;;6.57;5.45;;;;;;;5.30;68.19;101068.63;5054594;28;20056;-68
2021/05/03 02:15:23;;;;;;;11.25;6.40;;;;;;;5.77;67.36;101074.72;5071986;28;20075;-68
2021/05/03 02:17:48;;;;;;;7.95;5.50;;;;;;;5.73;65.76;101071.16;5071088;28;20032;-68
2021/05/03 02:20:15;;;;;;;9.07;5.90;;;;;;;5.07;68.23;101084.75;5071306;28;20541;-68
2021/05/03 02:22:41;;;;;;;7.80;5.68;;;;;;;5.09;67.38;101076.94;5071126;28;20386;-68
2021/05/03 02:25:06;;;;;;;9.18;5.95;;;;;;;5.31;69.40;101080.00;5061344;28;20112;-69
2021/05/03 02:27:32;;;;;;;5.55;5.03;;;;;;;5.47;68.03;101073.31;5072199;28;20032;-68
2021/05/03 02:29:57;;;;;;;6.90;5.78;;;;;;;5.74;66.52;101072.91;5061455;28;20024;-68
2021/05/03 02:32:23;;;;;;;7.22;5.45;;;;;;;5.39;68.32;101070.56;5072027;28;20028;-68
2021/05/03 02:34:49;;;;;;;6.60;5.57;;;;;;;6.62;65.08;101067.31;5054519;28;20028;-69
2021/05/03 02:37:14;;;;;;;6.05;5.18;;;;;;;6.43;64.51;101071.41;5056091;28;20111;-69
2021/05/03 02:39:42;;;;;;;8.50;5.40;;;;;;;6.11;65.10;101079.66;5072011;28;20028;-68
2021/05/03 02:42:08;;;;;;;6.03;5.28;;;;;;;5.98;64.74;101081.16;5071679;28;20498;-68
2021/05/03 02:44:38;;;;;;;5.30;4.80;;;;;;;5.65;66.69;101078.00;5066034;28;20024;-68
2021/05/03 02:47:03;;;;;;;6.10;5.50;;;;;;;6.11;66.13;101082.28;5059176;28;20027;-68
2021/05/03 02:49:28;;;;;;;5.55;5.03;;;;;;;6.24;64.70;101083.38;5072162;28;20025;-67
2021/05/03 02:51:54;;;;;;;6.30;5.70;;;;;;;6.14;64.35;101095.44;5071920;28;20025;-68
2021/05/03 02:54:19;;;;;;;6.78;6.18;;;;;;;6.16;64.51;101086.75;5071662;28;20395;-69
2021/05/03 02:56:44;;;;;;;6.00;5.32;;;;;;;6.96;63.31;101089.56;5071451;28;20044;-68
2021/05/03 02:59:09;;;;;;;7.00;5.85;;;;;;;6.86;62.69;101088.56;5066584;28;20021;-68
2021/05/03 03:01:35;;;;;;;6.32;5.72;;;;;;;7.24;62.09;101096.03;5042308;28;20040;-68
2021/05/03 03:04:00;;;;;;;6.45;5.20;;;;;;;6.59;63.23;101101.34;5070782;28;20028;-68
2021/05/03 03:06:25;;;;;;;7.13;5.30;;;;;;;6.64;63.05;101098.78;5071221;28;20028;-68
2021/05/03 03:08:51;;;;;;;7.45;5.95;;;;;;;6.89;62.54;101099.09;5071755;28;20486;-68
2021/05/03 03:11:16;;;;;;;7.30;5.10;;;;;;;7.03;62.41;101089.69;5069916;28;20031;-68
2021/05/03 03:13:41;;;;;;;7.85;4.70;;;;;;;7.34;61.06;101090.91;5070553;28;20082;-68
2021/05/03 03:16:07;;;;;;;6.30;5.57;;;;;;;6.55;63.14;101104.78;5071023;28;20029;-68
2021/05/03 03:18:32;;;;;;;7.00;5.68;;;;;;;7.01;62.79;101103.66;5071620;28;20036;-68
2021/05/03 03:20:58;;;;;;;6.53;5.30;;;;;;;6.14;64.10;101103.28;5056103;28;20036;-69
2021/05/03 03:23:23;;;;;;;6.30;4.95;;;;;;;6.09;64.91;101100.59;5071098;28;20024;-67
2021/05/03 03:25:48;;;;;;;8.05;5.57;;;;;;;6.05;65.87;101101.41;5053323;28;20028;-68
2021/05/03 03:28:14;;;;;;;7.97;5.10;;;;;;;5.82;65.65;101103.56;5071563;28;20012;-69
2021/05/03 03:30:39;;;;;;;8.95;5.68;;;;;;;5.41;67.27;101095.03;5053840;28;20035;-67
2021/05/03 03:33:04;;;;;;;6.32;5.00;;;;;;;5.44;66.46;101104.66;5071064;28;20029;-68
2021/05/03 03:35:30;;;;;;;6.63;5.28;;;;;;;5.19;67.32;101112.91;5059632;28;20475;-68
2021/05/03 03:37:55;;;;;;;5.70;4.90;;;;;;;5.31;67.35;101119.22;5072660;28;20396;-68
2021/05/03 03:40:22;;;;;;;7.40;5.20;;;;;;;5.18;67.39;101111.16;5058115;28;20052;-68
2021/05/03 03:42:47;;;;;;;9.32;5.78;;;;;;;5.47;66.99;101115.19;5031651;28;20040;-68
2021/05/03 03:45:15;;;;;;;6.60;5.38;;;;;;;5.63;66.13;101111.09;5051457;28;20029;-68
2021/05/03 03:47:40;;;;;;;7.53;5.10;;;;;;;5.55;66.45;101124.06;5043077;28;20025;-68
2021/05/03 03:50:06;;;;;;;6.50;5.47;;;;;;;5.88;66.33;101122.03;5073348;28;20021;-68
2021/05/03 03:52:32;;;;;;;8.20;5.70;;;;;;;5.73;65.99;101120.00;5044580;28;20086;-67
2021/05/03 03:54:57;;;;;;;8.60;5.80;;;;;;;5.98;64.41;101121.34;5074096;28;20028;-68
2021/05/03 03:57:23;;;;;;;10.15;5.60;;;;;;;6.61;64.50;101124.94;5068092;28;20437;-68
2021/05/03 03:59:53;;;;;;;7.28;6.32;;;;;;;6.72;64.04;101128.63;5058500;28;20032;-67
2021/05/03 04:02:18;;;;;;;5.75;5.00;;;;;;;7.15;60.49;101124.78;5074508;28;20055;-68
2021/05/03 04:04:52;;;;;;;8.50;5.85;;;;;;;7.70;60.46;101124.53;5057830;28;20561;-68
2021/05/03 04:07:29;;;;;;;7.50;5.53;;;;;;;8.08;59.04;101133.63;5056849;28;20024;-68
2021/05/03 04:23:46;;;;;;;7.63;4.80;;;;;;;8.15;59.90;101162.59;5074912;28;20461;-69
2021/05/03 04:26:10;;;;;;;7.88;6.70;;;;;;;7.13;63.56;101157.97;5074297;28;20037;-69
2021/05/03 04:28:35;;;;;;;5.60;5.05;;;;;;;7.40;61.46;101159.22;5074645;28;20483;-68
2021/05/03 04:31:00;;;;;;;6.75;6.05;;;;;;;6.96;64.92;101163.91;5074434;28;20036;-68
2021/05/03 04:33:26;;;;;;;6.93;5.57;;;;;;;6.80;66.53;101160.16;5074229;28;20058;-69
2021/05/03 04:35:51;;;;;;;7.30;5.93;;;;;;;7.62;63.21;101162.06;5063454;28;20089;-69
2021/05/03 04:38:16;;;;;;;7.43;5.22;;;;;;;6.91;64.60;101170.81;5074234;28;20504;-69
2021/05/03 04:40:44;;;;;;;8.68;5.63;;;;;;;7.41;65.16;101159.22;5074178;28;20028;-69
2021/05/03 04:43:10;;;;;;;7.75;5.95;;;;;;;8.15;61.72;101168.75;5057039;28;20028;-68
2021/05/03 04:45:35;;;;;;;5.80;5.07;;;;;;;8.23;60.91;101163.53;5056347;28;20073;-68
2021/05/03 04:48:00;;;;;;;5.68;5.13;;;;;;;7.98;60.91;101173.84;5060156;28;20027;-68
2021/05/03 04:50:26;;;;;;;6.18;5.57;;;;;;;8.42;61.29;101176.81;5057838;28;20020;-69
2021/05/03 04:52:52;;;;;;;8.48;6.93;;;;;;;8.91;59.87;101172.81;5064488;28;20029;-69
2021/05/03 04:55:17;;;;;;;8.52;7.57;;;;;;;9.23;57.29;101177.34;5072700;28;20028;-68
2021/05/03 04:57:43;;;;;;;7.70;6.65;;;;;;;8.72;60.24;101180.59;5073052;28;20020;-68
2021/05/03 05:00:09;;;;;;;8.10;7.30;;;;;;;8.18;62.59;101187.16;5073271;28;20384;-68
2021/05/03 05:02:34;;;;;;;9.95;7.45;;;;;;;9.06;59.79;101185.16;5072669;28;20036;-69
2021/05/03 05:05:00;;;;;;;8.27;6.95;;;;;;;9.23;59.38;101185.25;5056420;28;20035;-69
2021/05/03 05:07:26;;;;;;;9.77;7.15;;;;;;;8.26;62.52;101186.31;5055954;28;20036;-69
2021/05/03 05:09:51;;;;;;;10.05;7.32;;;;;;;8.76;60.82;101187.63;5055887;28;20021;-69
2021/05/03 05:12:16;;;;;;;10.15;7.00;;;;;;;8.78;61.90;101182.38;5072302;28;20609;-69
2021/05/03 05:14:42;;;;;;;8.82;6.35;;;;;;;8.91;62.10;101184.22;5072560;28;20028;-69
2021/05/03 05:17:07;;;;;;;9.38;7.57;;;;;;;8.54;61.63;101178.72;5072352;28;20025;-69
2021/05/03 05:19:32;;;;;;;10.65;7.63;;;;;;;8.91;61.10;101188.59;5073792;28;20032;-69
2021/05/03 05:21:58;;;;;;;10.13;7.18;;;;;;;8.78;62.00;101182.38;5073857;28;20429;-69
2021/05/03 05:24:23;;;;;;;7.68;6.88;;;;;;;8.86;60.37;101185.94;5073656;28;20063;-69
2021/05/03 05:26:49;;;;;;;9.75;7.28;;;;;;;8.88;61.11;101189.47;5073394;28;20016;-69
2021/05/03 05:29:14;;;;;;;7.07;5.90;;;;;;;8.92;60.41;101196.50;5072643;28;20024;-68
2021/05/03 05:31:39;;;;;;;7.30;6.60;;;;;;;9.29;59.94;101203.72;5073582;28;20044;-68
2021/05/03 05:34:04;;;;;;;9.18;7.25;;;;;;;9.08;59.47;101205.38;5073582;28;20051;-68
2021/05/03 05:36:30;;;;;;;8.43;6.72;;;;;;;8.87;60.42;101197.34;5073203;28;20498;-68
2021/05/03 05:38:55;;;;;;;9.20;6.50;;;;;;;12.88;51.20;101189.59;5055676;28;20036;-68
2021/05/03 05:41:20;;;;;;;9.85;6.32;;;;;;;17.27;40.95;101200.72;5055414;28;20025;-69
2021/05/03 05:43:46;;;;;;;7.82;5.63;;;;;;;17.74;39.02;101195.81;5055709;28;20484;-69
2021/05/03 05:46:12;;;;;;;5.93;4.63;;;;;;;20.83;33.51;101198.75;5055187;28;20063;-69
2021/05/03 05:48:38;;;;;;;5.10;4.45;;;;;;;18.80;37.12;101195.91;5072039;28;20433;-70
2021/05/03 05:51:04;;;;;;;4.82;4.30;;;;;;;19.21;36.56;101199.84;5055192;28;20020;-70
2021/05/03 05:53:30;;;;;;;4.93;4.18;;;;;;;18.75;36.37;101195.22;5055142;28;20028;-70
2021/05/03 05:55:56;;;;;;;4.72;4.30;;;;;;;17.44;39.81;101202.03;5072993;28;20027;-70
2021/05/03 05:58:21;;;;;;;4.68;4.28;;;;;;;20.61;34.24;101199.69;5049636;28;20099;-70
2021/05/03 06:00:46;;;;;;;4.15;3.75;;;;;;;20.76;32.38;101197.28;5072888;28;20020;-70
2021/05/03 06:03:12;;;;;;;4.78;3.97;;;;;;;23.05;29.77;101204.31;5073003;28;20384;-70
2021/05/03 06:05:37;;;;;;;4.07;3.70;;;;;;;20.88;33.55;101203.91;5071412;28;20020;-70
2021/05/03 06:08:02;;;;;;;5.93;4.20;;;;;;;23.35;30.37;101200.03;5071446;28;20356;-70
2021/05/03 06:10:28;;;;;;;4.70;4.30;;;;;;;22.76;30.26;101198.66;5071653;28;20036;-70
2021/05/03 06:12:53;;;;;;;4.28;3.90;;;;;;;21.24;32.21;101213.09;5072289;28;20017;-70
2021/05/03 06:15:18;;;;;;;4.45;4.07;;;;;;;24.43;28.70;101198.47;5072416;28;20028;-70
2021/05/03 06:17:44;;;;;;;4.47;4.00;;;;;;;21.76;29.95;101203.56;5072474;28;20020;-70
2021/05/03 06:20:10;;;;;;;4.10;3.70;;;;;;;21.74;31.14;101194.72;5038082;28;20406;-70
2021/05/03 06:22:36;;;;;;;3.90;3.50;;;;;;;22.48;29.52;101200.06;5072346;28;20028;-69
2021/05/03 06:25:01;;;;;;;3.83;3.53;;;;;;;21.31;31.11;101209.19;5054269;28;20028;-69
2021/05/03 06:27:27;;;;;;;4.13;3.83;;;;;;;22.58;28.79;101204.06;5072195;28;20020;-69
2021/05/03 06:29:52;;;;;;;4.68;4.15;;;;;;;24.39;28.35;101202.31;5071171;28;20111;-69
2021/05/03 06:32:18;;;;;;;4.28;3.92;;;;;;;20.48;32.70;101204.69;5072398;28;20112;-70
2021/05/03 06:34:43;;;;;;;5.80;4.30;;;;;;;21.00;32.53;101202.50;5072309;28;20099;-70
2021/05/03 06:37:08;;;;;;;5.63;4.55;;;;;;;19.44;35.33;101198.13;5070480;28;20097;-70
2021/05/03 06:39:34;;;;;;;5.63;4.38;;;;;;;16.87;39.92;101208.00;5072033;28;20518;-69
2021/05/03 06:41:59;;;;;;;4.93;4.07;;;;;;;15.99;41.66;101214.63;5070998;28;20028;-69
2021/05/03 06:44:25;;;;;;;5.43;4.65;;;;;;;16.27;41.00;101208.63;5071039;28;20027;-69
2021/05/03 06:46:50;;;;;;;4.40;4.00;;;;;;;19.70;34.62;101206.91;5070663;28;20025;-69
2021/05/03 06:49:15;;;;;;;3.05;2.85;;;;;;;20.05;32.90;101212.72;5072286;28;20024;-69
2021/05/03 06:51:41;;;;;;;3.25;2.95;;;;;;;21.70;30.03;101204.69;5072341;28;20448;-69
2021/05/03 06:54:06;;;;;;;3.55;3.25;;;;;;;20.20;32.75;101215.69;5062830;28;20246;-69
2021/05/03 06:56:31;;;;;;;2.78;2.58;;;;;;;21.73;29.16;101219.78;5053900;28;20036;-70
2021/05/03 06:58:57;;;;;;;3.15;2.92;;;;;;;24.68;27.60;101220.38;5054899;28;20024;-70
2021/05/03 07:01:22;;;;;;;3.22;2.88;;;;;;;29.07;21.17;101229.16;5071982;28;20035;-70
2021/05/03 07:03:48;;;;;;;4.38;3.55;;;;;;;24.39;27.51;101218.47;5071925;28;20070;-70
2021/05/03 07:06:13;;;;;;;3.65;3.25;;;;;;;16.47;36.68;101230.38;5070434;28;20047;-69
2021/05/03 07:08:39;;;;;;;4.63;4.15;;;;;;;16.52;38.09;101213.38;5071617;28;20024;-69
2021/05/03 07:11:16;;;;;;;4.25;3.85;;;;;;;21.98;29.92;101235.63;5054212;28;20025;-69
2021/05/03 07:13:42;;;;;;;3.90;3.50;;;;;;;18.91;34.78;101234.75;5055775;28;20030;-69
2021/05/03 07:16:07;;;;;;;5.25;4.30;;;;;;;23.40;29.17;101220.38;5053823;28;20532;-69
2021/05/03 07:18:32;;;;;;;4.72;4.22;;;;;;;22.70;28.96;101220.50;5071776;28;20119;-69
2021/05/03 07:20:58;;;;;;;4.07;3.70;;;;;;;23.89;28.39;101228.50;5053448;28;20056;-69
2021/05/03 07:23:24;;;;;;;4.20;3.80;;;;;;;19.00;34.14;101222.88;5053934;28;20067;-69
2021/05/03 07:25:49;;;;;;;6.03;4.80;;;;;;;16.07;39.47;101226.88;5053014;28;20051;-69
2021/05/03 07:28:15;;;;;;;5.20;4.75;;;;;;;15.23;41.97;101222.41;5053663;28;20024;-69
2021/05/03 07:30:40;;;;;;;5.28;4.78;;;;;;;20.69;32.97;101211.88;5070485;28;20021;-69
2021/05/03 07:33:06;;;;;;;5.97;4.97;;;;;;;16.79;39.97;101220.66;5053761;28;20020;-69
2021/05/03 07:35:31;;;;;;;5.82;5.25;;;;;;;18.26;38.54;101220.00;5071215;28;20503;-69
2021/05/03 07:37:56;;;;;;;5.60;5.10;;;;;;;24.19;29.78;101219.63;5036882;28;20028;-69
2021/05/03 07:40:22;;;;;;;6.55;5.35;;;;;;;23.94;28.50;101219.19;5071494;28;20094;-69
2021/05/03 07:42:47;;;;;;;6.38;4.47;;;;;;;18.58;35.25;101222.53;5053649;28;20100;-70
2021/05/03 07:45:14;;;;;;;5.38;4.53;;;;;;;16.82;38.58;101217.91;5071396;28;20023;-69
2021/05/03 07:47:39;;;;;;;5.97;5.38;;;;;;;15.90;41.25;101225.44;5053521;28;20033;-69
2021/05/03 07:50:05;;;;;;;3.78;3.47;;;;;;;17.01;39.58;101233.41;5053578;28;20111;-69
2021/05/03 07:52:31;;;;;;;3.25;2.35;;;;;;;21.02;32.10;101224.78;5070981;28;20036;-69
2021/05/03 07:54:58;;;;;;;2.15;1.98;;;;;;;24.49;27.12;101218.78;5071381;28;20069;-69
2021/05/03 07:57:23;;;;;;;4.60;4.20;;;;;;;24.89;25.71;101226.34;5036768;28;20027;-69
2021/05/03 07:59:49;;;;;;;5.13;4.63;;;;;;;26.04;25.65;101218.22;5071204;28;20024;-69
2021/05/03 08:02:15;;;;;;;5.57;4.90;;;;;;;20.05;31.33;101218.09;5071233;28;20377;-70
2021/05/03 08:04:40;;;;;;;5.40;4.85;;;;;;;17.94;36.44;101221.88;5071204;28;20095;-70
2021/05/03 08:07:06;;;;;;;6.00;5.45;;;;;;;15.56;39.76;101227.06;5071000;28;20073;-70
2021/05/03 08:09:31;;;;;;;6.80;6.20;;;;;;;14.65;42.43;101222.56;5070026;28;20016;-69
2021/05/03 08:11:57;;;;;;;6.88;5.32;;;;;;;19.63;34.13;101210.78;5071534;28;20387;-69
2021/05/03 08:14:22;;;;;;;5.40;4.90;;;;;;;22.94;27.83;101213.81;5070221;28;20024;-69
2021/05/03 08:16:50;;;;;;;2.10;2.00;;;;;;;23.94;27.74;101218.34;5069766;28;20391;-69
2021/05/03 08:19:16;;;;;;;3.65;2.50;;;;;;;20.48;29.71;101214.56;5069896;28;20031;-70
2021/05/03 08:21:41;;;;;;;3.20;1.70;;;;;;;22.90;28.14;101211.38;5070000;28;20032;-70
2021/05/03 08:24:07;;;;;;;1.50;1.40;;;;;;;24.32;25.70;101217.09;5069937;28;20025;-70
2021/05/03 08:26:32;;;;;;;1.80;1.70;;;;;;;26.55;24.00;101221.22;5055992;28;20076;-70
2021/05/03 08:28:58;;;;;;;2.20;2.05;;;;;;;20.89;30.23;101213.72;5052983;28;20064;-70
2021/05/03 08:31:24;;;;;;;4.13;2.65;;;;;;;17.48;35.92;101230.34;5053304;28;20059;-70
2021/05/03 08:33:49;;;;;;;3.60;3.30;;;;;;;19.22;34.50;101231.00;5053187;28;20048;-70
2021/05/03 08:36:14;;;;;;;3.63;3.15;;;;;;;22.44;29.56;101212.75;5072517;28;20103;-70
2021/05/03 08:38:40;;;;;;;2.80;2.60;;;;;;;22.17;29.59;101219.47;5074471;28;20544;-70
2021/05/03 08:41:06;;;;;;;4.40;2.72;;;;;;;19.24;33.33;101221.09;5074104;28;20024;-70
2021/05/03 08:43:33;;;;;;;3.50;2.70;;;;;;;17.26;35.07;101225.63;5056771;28;20591;-70
2021/05/03 08:45:59;;;;;;;3.15;2.72;;;;;;;17.38;36.59;101220.88;5073063;28;20502;-70
2021/05/03 08:51:11;;;;;;;2.45;2.15;;;;;;;23.50;25.54;101219.91;5057739;28;20439;-70
2021/05/03 08:53:41;;;;;;;2.88;2.13;;;;;;;22.29;29.62;101219.78;5058203;28;20028;-70
2021/05/03 08:56:06;;;;;;;2.40;2.20;;;;;;;24.96;25.14;101211.50;5073969;28;20506;-70
2021/05/03 08:58:36;;;;;;;1.52;1.42;;;;;;;25.68;25.93;101209.78;5073875;28;20032;-70
2021/05/03 09:01:01;;;;;;;2.60;2.40;;;;;;;26.32;24.15;101196.63;5056121;28;20387;-69
2021/05/03 09:03:27;;;;;;;2.70;2.50;;;;;;;29.95;20.69;101212.19;5056178;28;20116;-70
2021/05/03 09:05:54;;;;;;;1.90;1.80;;;;;;;27.66;24.11;101206.28;5055985;28;20028;-70
2021/05/03 09:08:24;;;;;;;3.10;1.85;;;;;;;28.17;23.05;101215.16;5056172;28;20483;-70
2021/05/03 09:10:50;;;;;;;1.83;1.73;;;;;;;30.03;20.72;101208.81;5056218;28;20032;-70
2021/05/03 09:13:15;;;;;;;2.00;1.80;;;;;;;26.57;21.45;101203.06;5056019;28;20274;-70
2021/05/03 09:15:41;;;;;;;2.03;1.92;;;;;;;23.10;26.77;101198.69;5056695;28;20020;-70
2021/05/03 09:18:06;;;;;;;3.78;2.08;;;;;;;26.84;23.98;101202.13;5055869;28;20020;-70
2021/05/03 09:20:33;;;;;;;3.63;2.10;;;;;;;28.58;22.24;101194.03;5073770;28;20040;-70
2021/05/03 09:23:14;;;;;;;2.05;1.85;;;;;;;27.86;22.38;101198.50;5055934;28;20052;-70
2021/05/03 09:25:42;;;;;;;2.28;1.85;;;;;;;29.20;20.74;101199.19;5057623;28;20024;-70
2021/05/03 09:28:19;;;;;;;2.88;2.05;;;;;;;27.85;22.70;101188.66;5073460;28;20016;-70
2021/05/03 09:30:54;;;;;;;1.70;1.55;;;;;;;26.80;23.73;101192.50;5056259;28;20729;-70
2021/05/03 09:33:23;;;;;;;3.13;1.50;;;;;;;25.29;25.37;101190.59;5073644;28;20027;-70
2021/05/03 09:36:02;;;;;;;2.53;2.33;;;;;;;25.99;24.53;101191.53;5073386;28;20379;-70
2021/05/03 09:38:38;;;;;;;2.35;1.60;;;;;;;24.27;24.35;101192.25;5073350;28;20064;-70
2021/05/03 09:41:24;;;;;;;2.15;1.95;;;;;;;25.49;23.94;101200.13;5035408;28;20048;-70
2021/05/03 09:43:54;;;;;;;1.92;1.67;;;;;;;26.15;24.03;101179.69;5035550;28;20434;-70
2021/05/03 09:46:31;;;;;;;2.00;1.80;;;;;;;31.41;19.08;101189.81;5035387;28;20029;-70
2021/05/03 09:49:00;;;;;;;2.33;1.65;;;;;;;25.93;23.94;101178.41;5071913;28;20031;-70
2021/05/03 09:51:42;;;;;;;1.85;1.75;;;;;;;19.43;32.83;101183.88;5072950;28;20031;-70
2021/05/03 09:54:10;;;;;;;2.10;1.90;;;;;;;21.13;30.16;101176.00;5071862;28;20024;-70
2021/05/03 09:56:54;;;;;;;2.13;1.92;;;;;;;21.28;29.46;101178.00;5071882;28;20020;-70
2021/05/03 09:59:36;;;;;;;3.58;2.10;;;;;;;25.47;25.27;101168.75;5070434;28;20021;-70
2021/05/03 10:02:05;;;;;;;1.80;1.70;;;;;;;25.18;25.16;101172.38;5071520;28;20063;-70
2021/05/03 10:04:31;;;;;;;3.38;2.13;;;;;;;24.93;25.21;101162.25;5055278;28;20039;-70
2021/05/03 10:06:57;;;;;;;2.40;2.20;;;;;;;26.34;23.18;101154.16;5054128;28;20024;-70
2021/05/03 10:09:23;;;;;;;2.70;2.50;;;;;;;24.65;25.76;101159.44;5072426;28;20024;-70
2021/05/03 10:11:48;;;;;;;3.25;3.00;;;;;;;22.29;27.39;101156.19;5072061;28;20023;-70
2021/05/03 10:14:14;;;;;;;2.42;2.22;;;;;;;20.38;31.06;101157.81;5054383;28;20485;-70
2021/05/03 10:16:40;;;;;;;2.60;2.40;;;;;;;19.79;33.42;101155.72;5054157;28;20020;-70
2021/05/03 10:19:06;;;;;;;2.20;1.88;;;;;;;21.53;30.38;101149.13;5062542;28;20017;-70
2021/05/03 10:21:32;;;;;;;2.38;2.17;;;;;;;20.79;31.35;101150.69;5037543;28;20025;-70
2021/05/03 10:23:57;;;;;;;3.22;2.67;;;;;;;19.52;32.76;101150.53;5053947;28;20023;-70
2021/05/03 10:26:25;;;;;;;3.33;3.03;;;;;;;19.12;33.82;101147.59;5053805;28;20028;-69
2021/05/03 10:28:53;;;;;;;2.95;2.75;;;;;;;19.16;34.20;101143.88;5054202;28;20123;-69
2021/05/03 10:31:19;;;;;;;3.30;3.00;;;;;;;20.07;32.71;101141.22;5072129;28;20020;-69
2021/05/03 10:33:44;;;;;;;2.88;2.65;;;;;;;21.02;31.43;101141.66;5069385;28;20012;-69
2021/05/03 10:36:10;;;;;;;3.17;2.88;;;;;;;20.30;31.52;101136.72;5053707;28;20528;-69
2021/05/03 10:38:39;;;;;;;3.53;3.22;;;;;;;19.05;32.14;101135.34;5053995;28;20012;-70
2021/05/03 10:41:28;;;;;;;2.80;2.60;;;;;;;18.32;34.20;101129.03;5069101;28;20100;-70
2021/05/03 10:44:21;;;;;;;3.58;3.28;;;;;;;17.77;34.75;101126.38;5054467;28;20033;-70
2021/05/03 10:49:17;;;;;;;3.60;3.30;;;;;;;18.76;34.17;101118.59;5072073;28;20024;-69
2021/05/03 10:54:19;;;;;;;5.38;3.35;;;;;;;19.90;33.87;101116.97;5071732;28;20024;-70
2021/05/03 10:56:44;;;;;;;5.43;3.47;;;;;;;22.29;31.35;101112.34;5071813;28;20438;-70
2021/05/03 10:59:14;;;;;;;3.55;3.25;;;;;;;21.60;29.12;101101.41;5053242;28;20025;-69
2021/05/03 11:01:51;;;;;;;3.63;3.22;;;;;;;21.68;31.05;101099.22;5054156;28;20016;-70
2021/05/03 11:04:43;;;;;;;3.63;3.42;;;;;;;22.43;29.31;101107.13;5071984;28;20365;-70
2021/05/03 11:07:10;;;;;;;4.90;3.50;;;;;;;22.24;31.07;101101.81;5067737;28;20037;-70
2021/05/03 11:09:41;;;;;;;3.50;3.20;;;;;;;21.63;30.97;101102.13;5071988;28;20020;-70
2021/05/03 11:12:06;;;;;;;;;;;;;;;21.69;32.76;101100.06;5071169;28;20368;-70
2021/05/03 11:14:33;;;;;;;3.90;3.60;;;;;;;19.90;31.81;101106.25;5070567;28;19965;-70
2021/05/03 11:17:03;;;;;;;3.30;3.10;;;;;;;19.86;31.98;101103.69;5070261;28;20738;-70
2021/05/03 11:22:00;;;;;;;4.78;3.15;;;;;;;19.46;31.97;101107.97;5072095;28;20028;-70
2021/05/03 11:24:31;;;;;;;5.55;3.58;;;;;;;18.92;33.95;101110.88;5068897;28;20075;-70
2021/05/03 11:27:04;;;;;;;3.13;2.92;;;;;;;18.31;35.39;101110.38;5070437;28;20020;-70
2021/05/03 11:29:41;;;;;;;3.97;3.20;;;;;;;18.23;34.61;101099.09;5070630;28;20023;-70
2021/05/03 11:32:06;;;;;;;4.03;3.55;;;;;;;18.95;32.28;101097.41;5070626;28;20020;-70
2021/05/03 11:34:42;;;;;;;3.40;3.20;;;;;;;19.05;32.35;101095.25;5070579;28;20390;-70
2021/05/03 11:37:12;;;;;;;3.72;3.40;;;;;;;19.34;34.51;101104.84;5070087;28;20033;-70
2021/05/03 11:42:34;;;;;;;3.67;3.28;;;;;;;18.58;34.19;101086.28;5071883;28;20025;-70
2021/05/03 11:44:59;;;;;;;2.90;2.70;;;;;;;19.39;33.22;101090.44;5055304;28;20048;-70
2021/05/03 11:47:28;;;;;;;3.40;3.10;;;;;;;19.03;32.60;101099.78;5071211;28;20059;-70
2021/05/03 11:49:54;;;;;;;3.58;3.28;;;;;;;18.20;34.50;101100.06;5070289;28;20020;-70
2021/05/03 11:52:34;;;;;;;6.28;3.78;;;;;;;17.76;35.31;101101.47;5070277;28;20024;-70
2021/05/03 11:55:16;;;;;;;4.68;3.75;;;;;;;17.15;35.83;101107.81;5071518;28;20016;-70